createdAt,value
2022-07-26T00:00:24.691Z,100718.12
2022-07-26T00:00:55.155Z,100715.44
2022-07-26T00:01:26.003Z,100717.89
2022-07-26T00:02:00.951Z,100722.70
2022-07-26T00:02:31.339Z,100726.42
2022-07-26T00:03:01.821Z,100724.39
2022-07-26T00:03:32.231Z,100727.10
2022-07-26T00:04:02.652Z,100724.35
2022-07-26T00:04:33.073Z,100724.05
2022-07-26T00:05:03.519Z,100728.08
2022-07-26T00:05:36.129Z,100727.64
2022-07-26T00:06:06.549Z,100729.20
2022-07-26T00:06:36.969Z,100728.01
2022-07-26T00:07:07.390Z,100730.41
2022-07-26T00:07:37.810Z,100731.30
2022-07-26T00:08:08.232Z,100731.77
2022-07-26T00:08:38.651Z,100728.55
2022-07-26T00:09:09.269Z,100730.04
2022-07-26T00:09:41.845Z,100721.56
2022-07-26T00:10:15.118Z,100720.85
2022-07-26T00:10:45.548Z,100716.41
2022-07-26T00:11:15.970Z,100712.70
2022-07-26T00:11:46.406Z,100708.55
2022-07-26T00:12:16.808Z,100706.85
2022-07-26T00:12:47.232Z,100706.95
2022-07-26T00:13:17.652Z,100700.92
2022-07-26T00:13:48.070Z,100700.24
2022-07-26T00:14:18.491Z,100702.14
2022-07-26T00:14:48.912Z,100701.63
2022-07-26T00:15:19.340Z,100705.02
2022-07-26T00:15:49.759Z,100707.46
2022-07-26T00:16:20.257Z,100703.39
2022-07-26T00:16:50.723Z,100705.69
2022-07-26T00:17:21.132Z,100708.30
2022-07-26T00:17:51.550Z,100706.34
2022-07-26T00:18:21.971Z,100705.94
2022-07-26T00:18:52.390Z,100705.42
2022-07-26T00:19:22.812Z,100708.85
2022-07-26T00:19:53.232Z,100705.62
2022-07-26T00:20:23.667Z,100707.66
2022-07-26T00:20:58.103Z,100708.59
2022-07-26T00:21:28.523Z,100710.66
2022-07-26T00:21:58.944Z,100711.38
2022-07-26T00:22:29.361Z,100714.26
2022-07-26T00:22:59.784Z,100715.41
2022-07-26T00:23:30.204Z,100717.16
2022-07-26T00:24:00.626Z,100715.33
2022-07-26T00:24:35.386Z,100717.19
2022-07-26T00:25:05.991Z,100716.98
2022-07-26T00:25:36.460Z,100719.84
2022-07-26T00:26:06.880Z,100719.69
2022-07-26T00:26:37.300Z,100720.44
2022-07-26T00:27:07.732Z,100715.39
2022-07-26T00:27:38.161Z,100716.74
2022-07-26T00:28:08.571Z,100717.72
2022-07-26T00:28:39.982Z,100713.69
2022-07-26T00:29:11.000Z,100712.04
2022-07-26T00:29:41.617Z,100713.52
2022-07-26T00:30:12.040Z,100712.47
2022-07-26T00:30:42.461Z,100715.10
2022-07-26T00:31:12.955Z,100716.22
2022-07-26T00:31:43.480Z,100717.66
2022-07-26T00:32:13.908Z,100720.06
2022-07-26T00:32:44.329Z,100720.95
2022-07-26T00:33:14.751Z,100717.25
2022-07-26T00:33:45.175Z,100717.72
2022-07-26T00:34:15.605Z,100714.84
2022-07-26T00:34:46.035Z,100710.19
2022-07-26T00:35:16.451Z,100708.02
2022-07-26T00:35:46.870Z,100705.39
2022-07-26T00:36:17.289Z,100705.56
2022-07-26T00:36:47.709Z,100702.59
2022-07-26T00:37:20.464Z,100705.94
2022-07-26T00:37:51.054Z,100705.00
2022-07-26T00:38:21.474Z,100707.89
2022-07-26T00:38:51.890Z,100707.64
2022-07-26T00:39:22.311Z,100707.89
2022-07-26T00:39:52.731Z,100713.19
2022-07-26T00:40:23.163Z,100712.03
2022-07-26T00:40:53.581Z,100717.38
2022-07-26T00:41:24.000Z,100718.84
2022-07-26T00:41:54.418Z,100724.31
2022-07-26T00:42:24.841Z,100729.41
2022-07-26T00:42:55.261Z,100731.68
2022-07-26T00:43:25.696Z,100738.46
2022-07-26T00:43:56.103Z,100743.08
2022-07-26T00:44:26.519Z,100744.43
2022-07-26T00:44:56.939Z,100741.38
2022-07-26T00:45:27.366Z,100743.66
2022-07-26T00:45:57.858Z,100742.39
2022-07-26T00:46:28.345Z,100738.40
2022-07-26T00:46:58.754Z,100740.84
2022-07-26T00:47:29.172Z,100739.47
2022-07-26T00:47:59.594Z,100734.28
2022-07-26T00:48:30.082Z,100734.84
2022-07-26T00:49:00.559Z,100732.81
2022-07-26T00:49:30.996Z,100732.40
2022-07-26T00:50:01.420Z,100734.52
2022-07-26T00:50:31.847Z,100731.04
2022-07-26T00:51:02.271Z,100731.11
2022-07-26T00:51:32.696Z,100727.97
2022-07-26T00:52:03.110Z,100729.96
2022-07-26T00:52:33.527Z,100731.12
2022-07-26T00:53:03.946Z,100727.80
2022-07-26T00:53:34.366Z,100725.16
2022-07-26T00:54:04.921Z,100725.56
2022-07-26T00:54:35.416Z,100723.81
2022-07-26T00:55:05.836Z,100725.42
2022-07-26T00:55:36.266Z,100726.75
2022-07-26T00:56:06.698Z,100725.73
2022-07-26T00:56:37.106Z,100725.69
2022-07-26T00:57:07.545Z,100727.65
2022-07-26T00:57:37.944Z,100724.77
2022-07-26T00:58:08.378Z,100728.83
2022-07-26T00:58:38.807Z,100729.30
2022-07-26T00:59:10.546Z,100732.23
2022-07-26T00:59:41.179Z,100734.50
2022-07-26T01:00:11.603Z,100734.41
2022-07-26T01:00:42.038Z,100734.08
2022-07-26T01:01:12.532Z,100736.44
2022-07-26T01:01:43.168Z,100734.88
2022-07-26T01:02:13.611Z,100740.09
2022-07-26T01:02:45.938Z,100736.39
2022-07-26T01:03:16.309Z,100734.02
2022-07-26T01:03:46.727Z,100735.50
2022-07-26T01:04:17.148Z,100727.75
2022-07-26T01:04:47.567Z,100727.38
2022-07-26T01:05:18.002Z,100725.75
2022-07-26T01:05:48.424Z,100725.92
2022-07-26T01:06:20.177Z,100724.39
2022-07-26T01:06:52.138Z,100724.90
2022-07-26T01:07:22.562Z,100723.64
2022-07-26T01:07:52.981Z,100724.79
2022-07-26T01:08:23.402Z,100723.56
2022-07-26T01:08:53.823Z,100724.75
2022-07-26T01:09:24.241Z,100725.52
2022-07-26T01:09:54.662Z,100726.50
2022-07-26T01:10:25.091Z,100724.58
2022-07-26T01:10:55.511Z,100722.96
2022-07-26T01:11:25.931Z,100722.83
2022-07-26T01:11:56.351Z,100720.91
2022-07-26T01:12:26.771Z,100723.36
2022-07-26T01:12:57.192Z,100726.71
2022-07-26T01:13:30.730Z,100724.20
2022-07-26T01:14:03.276Z,100724.50
2022-07-26T01:14:33.693Z,100725.39
2022-07-26T01:15:04.113Z,100729.70
2022-07-26T01:15:34.549Z,100726.66
2022-07-26T01:16:05.025Z,100727.03
2022-07-26T01:16:35.486Z,100730.28
2022-07-26T01:17:05.861Z,100730.58
2022-07-26T01:17:36.350Z,100733.12
2022-07-26T01:18:08.809Z,100731.94
2022-07-26T01:18:39.228Z,100735.94
2022-07-26T01:19:09.660Z,100735.43
2022-07-26T01:19:40.080Z,100735.59
2022-07-26T01:20:10.518Z,100734.66
2022-07-26T01:20:40.937Z,100739.23
2022-07-26T01:21:13.273Z,100735.67
2022-07-26T01:21:44.388Z,100741.02
2022-07-26T01:22:15.045Z,100741.06
2022-07-26T01:22:45.408Z,100741.49
2022-07-26T01:23:15.829Z,100741.55
2022-07-26T01:23:46.249Z,100739.78
2022-07-26T01:24:16.677Z,100736.97
2022-07-26T01:24:47.100Z,100742.09
2022-07-26T01:25:17.519Z,100743.31
2022-07-26T01:25:48.647Z,100743.19
2022-07-26T01:26:19.162Z,100744.72
2022-07-26T01:26:49.582Z,100749.01
2022-07-26T01:27:20.003Z,100749.74
2022-07-26T01:27:50.423Z,100751.61
2022-07-26T01:28:20.844Z,100754.48
2022-07-26T01:28:51.265Z,100753.08
2022-07-26T01:29:21.683Z,100755.48
2022-07-26T01:29:52.106Z,100751.36
2022-07-26T01:30:22.527Z,100758.95
2022-07-26T01:30:52.964Z,100760.98
2022-07-26T01:31:23.507Z,100760.41
2022-07-26T01:31:53.930Z,100758.08
2022-07-26T01:32:24.353Z,100755.53
2022-07-26T01:32:54.773Z,100757.66
2022-07-26T01:33:25.195Z,100759.20
2022-07-26T01:33:55.616Z,100752.86
2022-07-26T01:34:26.035Z,100751.00
2022-07-26T01:34:56.454Z,100753.30
2022-07-26T01:35:26.883Z,100753.12
2022-07-26T01:35:59.553Z,100752.17
2022-07-26T01:36:29.977Z,100750.73
2022-07-26T01:37:00.397Z,100743.73
2022-07-26T01:37:30.821Z,100744.75
2022-07-26T01:38:01.239Z,100745.09
2022-07-26T01:38:31.660Z,100744.41
2022-07-26T01:39:02.080Z,100744.00
2022-07-26T01:39:32.498Z,100744.39
2022-07-26T01:40:02.917Z,100742.66
2022-07-26T01:40:33.349Z,100745.41
2022-07-26T01:41:03.767Z,100744.20
2022-07-26T01:41:37.976Z,100745.30
2022-07-26T01:42:08.871Z,100746.11
2022-07-26T01:42:39.291Z,100742.41
2022-07-26T01:43:09.710Z,100742.08
2022-07-26T01:43:40.865Z,100745.46
2022-07-26T01:44:11.630Z,100748.98
2022-07-26T01:44:42.237Z,100749.49
2022-07-26T01:45:12.657Z,100748.31
2022-07-26T01:45:43.132Z,100752.00
2022-07-26T01:46:13.603Z,100751.64
2022-07-26T01:46:44.051Z,100751.84
2022-07-26T01:47:14.469Z,100754.14
2022-07-26T01:47:44.889Z,100751.12
2022-07-26T01:48:15.307Z,100750.48
2022-07-26T01:48:45.796Z,100747.23
2022-07-26T01:49:16.244Z,100749.34
2022-07-26T01:49:46.677Z,100747.61
2022-07-26T01:50:17.101Z,100748.62
2022-07-26T01:50:47.525Z,100741.62
2022-07-26T01:51:17.943Z,100746.02
2022-07-26T01:51:48.366Z,100744.66
2022-07-26T01:52:18.794Z,100743.12
2022-07-26T01:52:49.207Z,100743.30
2022-07-26T01:53:19.629Z,100742.11
2022-07-26T01:53:50.048Z,100743.30
2022-07-26T01:54:22.595Z,100742.48
2022-07-26T01:54:55.027Z,100744.31
2022-07-26T01:55:25.450Z,100748.25
2022-07-26T01:55:55.881Z,100750.42
2022-07-26T01:56:26.311Z,100753.20
2022-07-26T01:56:56.729Z,100754.66
2022-07-26T01:57:27.150Z,100757.02
2022-07-26T01:57:57.579Z,100761.36
2022-07-26T01:58:28.002Z,100763.50
2022-07-26T01:58:58.424Z,100762.69
2022-07-26T01:59:29.923Z,100766.21
2022-07-26T02:00:00.349Z,100763.30
2022-07-26T02:00:30.764Z,100764.05
2022-07-26T02:01:01.203Z,100765.64
2022-07-26T02:01:37.889Z,100767.00
2022-07-26T02:02:07.065Z,100768.53
2022-07-26T02:02:37.567Z,100768.32
2022-07-26T02:03:08.144Z,100771.58
2022-07-26T02:03:38.542Z,100768.73
2022-07-26T02:04:09.477Z,100766.56
2022-07-26T02:04:40.063Z,100769.62
2022-07-26T02:05:10.483Z,100769.62
2022-07-26T02:05:40.899Z,100775.47
2022-07-26T02:06:11.331Z,100774.73
2022-07-26T02:06:44.456Z,100770.48
2022-07-26T02:07:15.816Z,100770.66
2022-07-26T02:07:46.226Z,100763.44
2022-07-26T02:08:16.648Z,100767.44
2022-07-26T02:08:49.577Z,100766.93
2022-07-26T02:09:19.996Z,100767.51
2022-07-26T02:09:51.390Z,100767.55
2022-07-26T02:10:23.039Z,100768.39
2022-07-26T02:10:53.469Z,100765.42
2022-07-26T02:11:23.889Z,100770.41
2022-07-26T02:11:54.306Z,100770.41
2022-07-26T02:12:24.727Z,100769.42
2022-07-26T02:12:55.144Z,100768.74
2022-07-26T02:13:25.567Z,100767.02
2022-07-26T02:13:55.986Z,100767.62
2022-07-26T02:14:28.008Z,100765.25
2022-07-26T02:14:58.572Z,100765.65
2022-07-26T02:15:28.992Z,100762.63
2022-07-26T02:15:59.457Z,100763.27
2022-07-26T02:16:29.856Z,100766.19
2022-07-26T02:17:00.451Z,100764.74
2022-07-26T02:17:30.809Z,100767.35
2022-07-26T02:18:01.233Z,100765.02
2022-07-26T02:18:31.654Z,100767.19
2022-07-26T02:19:02.071Z,100768.38
2022-07-26T02:19:32.496Z,100769.94
2022-07-26T02:20:02.923Z,100772.13
2022-07-26T02:20:33.358Z,100771.08
2022-07-26T02:21:03.781Z,100768.92
2022-07-26T02:21:34.201Z,100769.22
2022-07-26T02:22:04.634Z,100772.20
2022-07-26T02:22:35.057Z,100771.55
2022-07-26T02:23:05.478Z,100772.67
2022-07-26T02:23:35.900Z,100767.02
2022-07-26T02:24:11.280Z,100771.62
2022-07-26T02:24:41.639Z,100770.85
2022-07-26T02:25:12.057Z,100772.61
2022-07-26T02:25:42.479Z,100771.42
2022-07-26T02:26:12.912Z,100767.02
2022-07-26T02:26:43.330Z,100766.55
2022-07-26T02:27:13.751Z,100765.31
2022-07-26T02:27:44.171Z,100764.30
2022-07-26T02:28:14.590Z,100761.46
2022-07-26T02:28:45.014Z,100762.52
2022-07-26T02:29:15.431Z,100761.46
2022-07-26T02:29:45.854Z,100759.94
2022-07-26T02:30:16.276Z,100762.48
2022-07-26T02:30:46.763Z,100760.11
2022-07-26T02:31:17.371Z,100760.31
2022-07-26T02:31:48.413Z,100759.67
2022-07-26T02:32:19.671Z,100757.30
2022-07-26T02:32:50.095Z,100759.77
2022-07-26T02:33:20.513Z,100758.41
2022-07-26T02:33:50.933Z,100759.86
2022-07-26T02:34:21.352Z,100759.42
2022-07-26T02:34:51.776Z,100756.58
2022-07-26T02:35:22.237Z,100759.29
2022-07-26T02:35:52.635Z,100758.99
2022-07-26T02:36:23.066Z,100759.84
2022-07-26T02:36:53.487Z,100758.89
2022-07-26T02:37:23.909Z,100760.59
2022-07-26T02:37:54.329Z,100762.41
2022-07-26T02:38:25.260Z,100757.56
2022-07-26T02:38:55.666Z,100757.28
2022-07-26T02:39:26.089Z,100756.61
2022-07-26T02:39:56.504Z,100762.41
2022-07-26T02:40:26.926Z,100760.20
2022-07-26T02:40:57.347Z,100760.06
2022-07-26T02:41:27.773Z,100756.17
2022-07-26T02:41:58.195Z,100756.11
2022-07-26T02:42:28.613Z,100752.89
2022-07-26T02:42:59.035Z,100755.17
2022-07-26T02:43:29.456Z,100760.80
2022-07-26T02:43:59.875Z,100758.02
2022-07-26T02:44:30.297Z,100754.92
2022-07-26T02:45:00.721Z,100755.56
2022-07-26T02:45:31.135Z,100750.77
2022-07-26T02:46:02.662Z,100749.91
2022-07-26T02:46:33.176Z,100752.16
2022-07-26T02:47:03.548Z,100750.45
2022-07-26T02:47:33.969Z,100752.80
2022-07-26T02:48:04.389Z,100752.28
2022-07-26T02:48:35.743Z,100753.51
2022-07-26T02:49:06.262Z,100749.34
2022-07-26T02:49:36.690Z,100750.29
2022-07-26T02:50:07.111Z,100751.17
2022-07-26T02:50:37.532Z,100752.02
2022-07-26T02:51:07.958Z,100751.34
2022-07-26T02:51:38.378Z,100754.16
2022-07-26T02:52:08.804Z,100752.67
2022-07-26T02:52:39.221Z,100753.14
2022-07-26T02:53:09.640Z,100750.77
2022-07-26T02:53:40.062Z,100748.20
2022-07-26T02:54:10.967Z,100753.11
2022-07-26T02:54:41.651Z,100753.45
2022-07-26T02:55:12.074Z,100753.28
2022-07-26T02:55:42.606Z,100754.56
2022-07-26T02:56:13.032Z,100754.56
2022-07-26T02:56:43.455Z,100756.59
2022-07-26T02:57:13.876Z,100752.94
2022-07-26T02:57:45.541Z,100754.20
2022-07-26T02:58:17.253Z,100754.41
2022-07-26T02:58:47.674Z,100749.96
2022-07-26T02:59:18.093Z,100753.95
2022-07-26T02:59:48.514Z,100750.41
2022-07-26T03:00:18.932Z,100754.22
2022-07-26T03:00:49.354Z,100753.34
2022-07-26T03:01:19.916Z,100753.04
2022-07-26T03:01:50.392Z,100755.84
2022-07-26T03:02:20.862Z,100753.61
2022-07-26T03:02:51.411Z,100750.23
2022-07-26T03:03:21.856Z,100753.45
2022-07-26T03:03:52.283Z,100758.61
2022-07-26T03:04:22.709Z,100758.13
2022-07-26T03:04:53.123Z,100759.66
2022-07-26T03:05:23.542Z,100758.17
2022-07-26T03:05:53.959Z,100755.33
2022-07-26T03:06:24.390Z,100759.80
2022-07-26T03:06:54.811Z,100759.05
2022-07-26T03:07:25.236Z,100759.26
2022-07-26T03:07:55.651Z,100755.05
2022-07-26T03:08:26.077Z,100758.47
2022-07-26T03:08:56.488Z,100757.80
2022-07-26T03:09:26.911Z,100757.83
2022-07-26T03:09:57.329Z,100757.53
2022-07-26T03:10:27.748Z,100758.61
2022-07-26T03:10:58.170Z,100756.72
2022-07-26T03:11:28.592Z,100758.24
2022-07-26T03:11:59.012Z,100759.90
2022-07-26T03:12:29.432Z,100758.34
2022-07-26T03:12:59.855Z,100759.83
2022-07-26T03:13:30.275Z,100758.38
2022-07-26T03:14:00.695Z,100759.73
2022-07-26T03:14:32.330Z,100759.66
2022-07-26T03:15:02.745Z,100758.91
2022-07-26T03:15:33.280Z,100758.98
2022-07-26T03:16:03.761Z,100760.50
2022-07-26T03:16:34.179Z,100763.73
2022-07-26T03:17:04.570Z,100757.70
2022-07-26T03:17:35.006Z,100765.81
2022-07-26T03:18:05.409Z,100760.77
2022-07-26T03:18:35.834Z,100761.78
2022-07-26T03:19:06.249Z,100764.50
2022-07-26T03:19:36.667Z,100763.72
2022-07-26T03:20:07.090Z,100762.63
2022-07-26T03:20:37.512Z,100759.28
2022-07-26T03:21:07.944Z,100764.50
2022-07-26T03:21:38.359Z,100760.56
2022-07-26T03:22:08.779Z,100759.41
2022-07-26T03:22:39.202Z,100759.20
2022-07-26T03:23:09.624Z,100755.86
2022-07-26T03:23:40.046Z,100758.87
2022-07-26T03:24:10.919Z,100759.72
2022-07-26T03:24:41.617Z,100761.17
2022-07-26T03:25:12.039Z,100758.93
2022-07-26T03:25:42.457Z,100760.49
2022-07-26T03:26:13.042Z,100757.96
2022-07-26T03:26:43.465Z,100757.36
2022-07-26T03:27:13.880Z,100755.60
2022-07-26T03:27:44.303Z,100758.55
2022-07-26T03:28:19.133Z,100757.30
2022-07-26T03:28:49.923Z,100758.99
2022-07-26T03:29:20.344Z,100759.94
2022-07-26T03:29:50.764Z,100758.92
2022-07-26T03:30:24.653Z,100762.14
2022-07-26T03:30:56.074Z,100762.52
2022-07-26T03:31:26.511Z,100763.66
2022-07-26T03:31:56.871Z,100762.64
2022-07-26T03:32:27.290Z,100758.41
2022-07-26T03:32:57.710Z,100764.07
2022-07-26T03:33:28.129Z,100765.94
2022-07-26T03:34:02.979Z,100763.33
2022-07-26T03:34:33.711Z,100764.04
2022-07-26T03:35:04.132Z,100768.66
2022-07-26T03:35:36.786Z,100767.09
2022-07-26T03:36:11.667Z,100765.94
2022-07-26T03:36:42.579Z,100767.39
2022-07-26T03:37:13.003Z,100769.39
2022-07-26T03:37:45.541Z,100767.09
2022-07-26T03:38:16.744Z,100772.24
2022-07-26T03:38:47.166Z,100768.39
2022-07-26T03:39:17.586Z,100768.17
2022-07-26T03:39:48.006Z,100772.55
2022-07-26T03:40:18.428Z,100769.53
2022-07-26T03:40:48.850Z,100771.02
2022-07-26T03:41:19.278Z,100768.45
2022-07-26T03:41:49.697Z,100772.34
2022-07-26T03:42:20.120Z,100769.12
2022-07-26T03:42:50.540Z,100770.10
2022-07-26T03:43:23.426Z,100770.14
2022-07-26T03:43:53.919Z,100770.98
2022-07-26T03:44:24.342Z,100772.64
2022-07-26T03:44:54.759Z,100769.46
2022-07-26T03:45:25.181Z,100772.68
2022-07-26T03:45:55.651Z,100772.51
2022-07-26T03:46:26.182Z,100772.34
2022-07-26T03:46:56.593Z,100772.55
2022-07-26T03:47:27.012Z,100772.34
2022-07-26T03:47:57.432Z,100774.38
2022-07-26T03:48:27.932Z,100773.02
2022-07-26T03:48:58.426Z,100774.58
2022-07-26T03:49:28.891Z,100770.59
2022-07-26T03:49:59.277Z,100771.36
2022-07-26T03:50:29.696Z,100772.20
2022-07-26T03:51:00.363Z,100768.95
2022-07-26T03:51:30.798Z,100770.30
2022-07-26T03:52:01.215Z,100771.33
2022-07-26T03:52:31.644Z,100774.24
2022-07-26T03:53:02.066Z,100774.95
2022-07-26T03:53:32.486Z,100773.12
2022-07-26T03:54:02.903Z,100769.30
2022-07-26T03:54:33.323Z,100773.27
2022-07-26T03:55:03.742Z,100772.29
2022-07-26T03:55:34.163Z,100771.45
2022-07-26T03:56:04.584Z,100772.94
2022-07-26T03:56:35.023Z,100774.01
2022-07-26T03:57:05.447Z,100773.56
2022-07-26T03:57:35.869Z,100776.45
2022-07-26T03:58:06.288Z,100774.88
2022-07-26T03:58:36.708Z,100774.72
2022-07-26T03:59:07.777Z,100770.62
2022-07-26T03:59:38.195Z,100774.31
2022-07-26T04:00:08.613Z,100776.68
2022-07-26T04:00:39.035Z,100776.45
2022-07-26T04:01:09.529Z,100773.97
2022-07-26T04:01:40.063Z,100773.63
2022-07-26T04:02:10.535Z,100775.09
2022-07-26T04:02:40.991Z,100778.98
2022-07-26T04:03:11.360Z,100773.56
2022-07-26T04:03:47.286Z,100775.84
2022-07-26T04:04:17.105Z,100778.14
2022-07-26T04:04:48.145Z,100777.46
2022-07-26T04:05:23.575Z,100782.00
2022-07-26T04:05:53.894Z,100779.66
2022-07-26T04:06:26.458Z,100775.16
2022-07-26T04:06:56.880Z,100775.84
2022-07-26T04:07:27.304Z,100776.27
2022-07-26T04:07:57.725Z,100778.68
2022-07-26T04:08:28.156Z,100772.78
2022-07-26T04:08:58.566Z,100772.95
2022-07-26T04:09:28.992Z,100777.80
2022-07-26T04:09:59.410Z,100773.43
2022-07-26T04:10:29.831Z,100773.77
2022-07-26T04:11:00.257Z,100774.92
2022-07-26T04:11:30.700Z,100770.84
2022-07-26T04:12:01.118Z,100773.86
2022-07-26T04:12:31.536Z,100770.34
2022-07-26T04:13:01.954Z,100771.02
2022-07-26T04:13:32.372Z,100769.94
2022-07-26T04:14:02.798Z,100774.30
2022-07-26T04:14:33.216Z,100774.16
2022-07-26T04:15:03.639Z,100772.04
2022-07-26T04:15:34.057Z,100772.45
2022-07-26T04:16:04.480Z,100773.05
2022-07-26T04:16:36.951Z,100773.62
2022-07-26T04:17:09.329Z,100769.97
2022-07-26T04:17:39.703Z,100772.17
2022-07-26T04:18:10.120Z,100772.55
2022-07-26T04:18:40.542Z,100771.94
2022-07-26T04:19:10.964Z,100772.28
2022-07-26T04:19:41.385Z,100772.58
2022-07-26T04:20:11.811Z,100771.06
2022-07-26T04:20:42.229Z,100773.50
2022-07-26T04:21:12.647Z,100774.86
2022-07-26T04:21:43.081Z,100773.36
2022-07-26T04:22:13.493Z,100772.00
2022-07-26T04:22:43.914Z,100774.72
2022-07-26T04:23:14.336Z,100775.05
2022-07-26T04:23:50.771Z,100775.66
2022-07-26T04:24:20.079Z,100782.98
2022-07-26T04:24:55.410Z,100778.52
2022-07-26T04:25:25.823Z,100777.29
2022-07-26T04:25:56.248Z,100779.80
2022-07-26T04:26:26.674Z,100779.62
2022-07-26T04:26:57.096Z,100778.23
2022-07-26T04:27:27.516Z,100780.09
2022-07-26T04:27:57.936Z,100780.23
2022-07-26T04:28:28.356Z,100780.47
2022-07-26T04:28:58.781Z,100781.32
2022-07-26T04:29:29.200Z,100776.78
2022-07-26T04:29:59.622Z,100778.89
2022-07-26T04:30:30.156Z,100778.64
2022-07-26T04:31:00.611Z,100777.77
2022-07-26T04:31:34.981Z,100776.38
2022-07-26T04:32:06.332Z,100778.03
2022-07-26T04:32:36.751Z,100780.56
2022-07-26T04:33:07.172Z,100775.35
2022-07-26T04:33:37.595Z,100777.55
2022-07-26T04:34:08.315Z,100776.10
2022-07-26T04:34:38.886Z,100777.77
2022-07-26T04:35:09.310Z,100779.28
2022-07-26T04:35:39.726Z,100776.41
2022-07-26T04:36:10.153Z,100777.42
2022-07-26T04:36:40.578Z,100776.41
2022-07-26T04:37:11.001Z,100778.37
2022-07-26T04:37:41.435Z,100778.23
2022-07-26T04:38:11.850Z,100781.42
2022-07-26T04:38:42.271Z,100778.95
2022-07-26T04:39:12.691Z,100780.17
2022-07-26T04:39:43.114Z,100782.03
2022-07-26T04:40:13.536Z,100776.81
2022-07-26T04:40:44.485Z,100778.10
2022-07-26T04:41:15.056Z,100774.88
2022-07-26T04:41:45.484Z,100772.68
2022-07-26T04:42:15.909Z,100776.71
2022-07-26T04:42:46.326Z,100775.52
2022-07-26T04:43:16.751Z,100775.08
2022-07-26T04:43:47.181Z,100772.53
2022-07-26T04:44:17.600Z,100771.08
2022-07-26T04:44:48.024Z,100771.93
2022-07-26T04:45:18.451Z,100773.11
2022-07-26T04:45:48.984Z,100773.22
2022-07-26T04:46:19.517Z,100777.24
2022-07-26T04:46:49.941Z,100777.38
2022-07-26T04:47:20.365Z,100777.21
2022-07-26T04:47:50.914Z,100776.16
2022-07-26T04:48:21.293Z,100775.00
2022-07-26T04:48:51.768Z,100777.51
2022-07-26T04:49:22.161Z,100776.42
2022-07-26T04:49:52.576Z,100775.41
2022-07-26T04:50:22.999Z,100776.76
2022-07-26T04:50:53.419Z,100774.52
2022-07-26T04:51:23.840Z,100777.88
2022-07-26T04:51:59.175Z,100773.70
2022-07-26T04:52:29.614Z,100776.38
2022-07-26T04:53:00.035Z,100777.09
2022-07-26T04:53:30.457Z,100775.41
2022-07-26T04:54:00.878Z,100780.62
2022-07-26T04:54:31.296Z,100777.17
2022-07-26T04:55:01.719Z,100782.82
2022-07-26T04:55:32.137Z,100779.73
2022-07-26T04:56:02.562Z,100782.27
2022-07-26T04:56:32.986Z,100782.86
2022-07-26T04:57:03.412Z,100779.96
2022-07-26T04:57:33.830Z,100779.48
2022-07-26T04:58:04.252Z,100780.88
2022-07-26T04:58:34.673Z,100780.27
2022-07-26T04:59:05.097Z,100784.38
2022-07-26T04:59:35.515Z,100780.14
2022-07-26T05:00:22.599Z,100784.42
2022-07-26T05:01:03.203Z,100781.95
2022-07-26T05:01:16.716Z,100783.95
2022-07-26T05:01:47.181Z,100783.66
2022-07-26T05:02:17.683Z,100784.23
2022-07-26T05:02:48.147Z,100784.95
2022-07-26T05:03:18.568Z,100782.28
2022-07-26T05:03:48.960Z,100784.14
2022-07-26T05:04:19.381Z,100787.49
2022-07-26T05:04:49.798Z,100786.92
2022-07-26T05:05:20.220Z,100786.11
2022-07-26T05:05:50.643Z,100787.12
2022-07-26T05:06:21.061Z,100786.00
2022-07-26T05:06:53.333Z,100786.78
2022-07-26T05:07:23.749Z,100785.09
2022-07-26T05:07:54.166Z,100794.53
2022-07-26T05:08:24.588Z,100789.59
2022-07-26T05:08:55.006Z,100787.29
2022-07-26T05:09:25.428Z,100789.49
2022-07-26T05:09:55.850Z,100787.80
2022-07-26T05:10:26.267Z,100789.76
2022-07-26T05:10:56.691Z,100786.50
2022-07-26T05:11:28.161Z,100791.75
2022-07-26T05:11:58.586Z,100787.01
2022-07-26T05:12:29.011Z,100789.38
2022-07-26T05:12:59.430Z,100792.36
2022-07-26T05:13:31.023Z,100787.78
2022-07-26T05:14:01.514Z,100789.89
2022-07-26T05:14:31.935Z,100788.41
2022-07-26T05:15:04.555Z,100792.87
2022-07-26T05:15:35.754Z,100792.02
2022-07-26T05:16:11.540Z,100790.66
2022-07-26T05:16:44.410Z,100791.01
2022-07-26T05:17:17.841Z,100791.89
2022-07-26T05:17:48.384Z,100793.92
2022-07-26T05:18:18.807Z,100790.77
2022-07-26T05:18:53.601Z,100793.45
2022-07-26T05:19:24.020Z,100795.59
2022-07-26T05:19:55.046Z,100794.84
2022-07-26T05:20:26.434Z,100797.62
2022-07-26T05:20:56.859Z,100793.72
2022-07-26T05:21:27.277Z,100796.77
2022-07-26T05:21:57.705Z,100799.98
2022-07-26T05:22:28.125Z,100801.09
2022-07-26T05:22:58.543Z,100799.23
2022-07-26T05:23:28.970Z,100798.80
2022-07-26T05:23:59.403Z,100798.56
2022-07-26T05:24:29.822Z,100798.19
2022-07-26T05:25:00.252Z,100799.81
2022-07-26T05:25:30.680Z,100799.67
2022-07-26T05:26:01.096Z,100805.13
2022-07-26T05:26:31.531Z,100799.64
2022-07-26T05:27:01.960Z,100800.89
2022-07-26T05:27:32.382Z,100799.38
2022-07-26T05:28:02.803Z,100802.02
2022-07-26T05:28:33.225Z,100802.86
2022-07-26T05:29:03.646Z,100809.73
2022-07-26T05:29:34.071Z,100812.98
2022-07-26T05:30:04.494Z,100812.56
2022-07-26T05:30:34.975Z,100810.66
2022-07-26T05:31:05.403Z,100809.38
2022-07-26T05:31:35.783Z,100813.38
2022-07-26T05:32:06.211Z,100818.11
2022-07-26T05:32:36.632Z,100820.73
2022-07-26T05:33:07.050Z,100815.20
2022-07-26T05:33:37.473Z,100817.19
2022-07-26T05:34:08.280Z,100815.88
2022-07-26T05:34:38.803Z,100819.51
2022-07-26T05:35:09.227Z,100821.56
2022-07-26T05:35:39.650Z,100818.09
2022-07-26T05:36:10.071Z,100819.30
2022-07-26T05:36:40.489Z,100817.56
2022-07-26T05:37:10.916Z,100819.07
2022-07-26T05:37:41.336Z,100821.05
2022-07-26T05:38:11.764Z,100822.14
2022-07-26T05:38:42.180Z,100820.42
2022-07-26T05:39:15.904Z,100821.22
2022-07-26T05:39:46.576Z,100820.61
2022-07-26T05:40:17.001Z,100822.64
2022-07-26T05:40:50.689Z,100822.72
2022-07-26T05:41:21.378Z,100823.90
2022-07-26T05:41:51.799Z,100825.39
2022-07-26T05:42:22.232Z,100822.72
2022-07-26T05:42:52.653Z,100820.53
2022-07-26T05:43:23.075Z,100822.12
2022-07-26T05:43:53.495Z,100824.89
2022-07-26T05:44:23.916Z,100824.02
2022-07-26T05:44:56.871Z,100826.05
2022-07-26T05:45:27.687Z,100828.55
2022-07-26T05:45:58.142Z,100824.75
2022-07-26T05:46:28.591Z,100824.14
2022-07-26T05:46:58.985Z,100829.06
2022-07-26T05:47:29.419Z,100828.69
2022-07-26T05:47:59.839Z,100830.08
2022-07-26T05:48:30.324Z,100832.11
2022-07-26T05:49:00.768Z,100831.36
2022-07-26T05:49:39.915Z,100832.17
2022-07-26T05:50:06.497Z,100834.34
2022-07-26T05:50:36.922Z,100833.12